Time;durP1;ratioP1;P1;durP2;ratioP2;P2;SDS_P1;SDS_P2;PMS_P1;PMS_P2;Temp;Humidity;BMP_temperature;BMP_pressure;BME280_temperature;BME280_humidity;BME280_pressure;Samples;Min_cycle;Max_cycle;Signal;HPM_P1;HPM_P2
2022/06/24 04:05:10;;;;;;;2.80;2.60;;;17.40;99.90;;;;;;5795738;23;21001;-65
2022/06/24 04:07:36;;;;;;;2.03;1.90;;;17.40;99.90;;;;;;5016299;28;20558;-64
2022/06/24 04:10:01;;;;;;;2.20;2.00;;;17.30;99.90;;;;;;5016309;28;20505;-64
2022/06/24 04:12:27;;;;;;;4.20;1.87;;;17.30;99.90;;;;;;5016156;28;20188;-64
2022/06/24 04:17:37;;;;;;;4.20;1.93;;;17.40;99.90;;;;;;5016870;28;20673;-64
2022/06/24 04:20:02;;;;;;;3.30;2.30;;;17.30;99.90;;;;;;5016724;28;20421;-64
2022/06/24 04:22:28;;;;;;;2.33;1.67;;;17.30;99.90;;;;;;5016389;28;20653;-64
2022/06/24 04:24:54;;;;;;;2.27;1.77;;;17.30;99.90;;;;;;5016381;28;20276;-64
2022/06/24 04:27:19;;;;;;;12.10;2.23;;;17.30;99.90;;;;;;5015966;28;20709;-64
2022/06/24 04:29:45;;;;;;;3.07;2.77;;;17.30;99.90;;;;;;5016848;28;20176;-64
2022/06/24 04:32:10;;;;;;;3.67;3.37;;;17.40;99.90;;;;;;5016756;28;20174;-64
2022/06/24 04:34:38;;;;;;;2.30;2.10;;;17.70;99.90;;;;;;5014759;28;20221;-64
2022/06/24 04:37:04;;;;;;;2.90;2.70;;;18.20;99.90;;;;;;5017134;28;20257;-64
2022/06/24 04:39:30;;;;;;;3.10;2.00;;;18.70;99.90;;;;;;5016099;28;20457;-65
2022/06/24 04:41:55;;;;;;;6.90;2.00;;;19.00;99.90;;;;;;5016499;28;20504;-65
2022/06/24 04:44:21;;;;;;;3.13;1.50;;;19.20;99.90;;;;;;5015953;28;20592;-64
2022/06/24 04:46:47;;;;;;;2.00;1.90;;;19.50;99.90;;;;;;5016399;28;20187;-64
2022/06/24 04:49:13;;;;;;;1.87;1.77;;;19.60;99.90;;;;;;5016194;28;20921;-65
2022/06/24 04:51:38;;;;;;;5.50;1.87;;;19.70;99.90;;;;;;5016160;28;20175;-65
2022/06/24 04:54:04;;;;;;;2.83;1.50;;;19.80;99.90;;;;;;5015730;28;20649;-65
2022/06/24 04:56:29;;;;;;;2.53;1.67;;;19.90;99.90;;;;;;5016064;28;20171;-69
2022/06/24 04:58:55;;;;;;;2.20;2.10;;;19.80;99.90;;;;;;5016138;28;20182;-67
2022/06/24 05:01:21;;;;;;;1.50;1.40;;;19.80;99.90;;;;;;5016116;28;20268;-68
2022/06/24 05:03:46;;;;;;;4.77;2.43;;;19.80;99.90;;;;;;5015202;28;20438;-68
2022/06/24 05:06:12;;;;;;;1.70;1.60;;;19.70;99.90;;;;;;5015827;28;20191;-68
2022/06/24 05:08:38;;;;;;;1.97;1.60;;;19.80;99.90;;;;;;5015853;28;20206;-68
2022/06/24 05:11:05;;;;;;;2.00;1.70;;;19.90;99.90;;;;;;5015866;28;20535;-69
2022/06/24 05:13:30;;;;;;;2.83;1.73;;;20.10;99.90;;;;;;4996715;28;20544;-70
2022/06/24 05:15:58;;;;;;;2.17;1.97;;;20.20;99.90;;;;;;5015707;28;20409;-73
2022/06/24 05:18:23;;;;;;;1.77;1.63;;;20.30;99.90;;;;;;4998240;28;20270;-73
2022/06/24 05:20:49;;;;;;;1.83;1.43;;;20.50;99.90;;;;;;5015248;28;20851;-72
2022/06/24 05:23:15;;;;;;;1.90;1.80;;;20.50;99.90;;;;;;5015162;28;20195;-72
2022/06/24 05:25:40;;;;;;;3.10;1.77;;;20.50;99.90;;;;;;4998191;28;20183;-72
2022/06/24 05:28:06;;;;;;;1.90;1.67;;;20.60;99.90;;;;;;4997672;28;20202;-70
2022/06/24 05:30:32;;;;;;;5.30;2.10;;;20.70;99.90;;;;;;5015483;28;20595;-72
2022/06/24 05:32:57;;;;;;;2.80;1.63;;;20.80;99.90;;;;;;5015173;28;20175;-70
2022/06/24 05:35:23;;;;;;;2.60;1.50;;;20.90;99.90;;;;;;5015084;28;20178;-69
2022/06/24 05:37:48;;;;;;;1.73;1.63;;;21.00;99.90;;;;;;5015533;28;20179;-69
2022/06/24 05:40:14;;;;;;;2.20;2.00;;;21.10;99.90;;;;;;5015529;28;20175;-68
2022/06/24 05:42:40;;;;;;;3.87;1.90;;;21.20;99.90;;;;;;5015154;28;20174;-66
2022/06/24 05:45:06;;;;;;;1.87;1.77;;;21.40;99.90;;;;;;5015074;28;20274;-68
2022/06/24 05:47:34;;;;;;;2.30;1.50;;;21.40;99.90;;;;;;5015058;28;20196;-67
2022/06/24 05:49:59;;;;;;;2.43;1.60;;;21.40;99.90;;;;;;5014749;28;20422;-67
2022/06/24 05:55:09;;;;;;;1.97;1.83;;;21.40;99.90;;;;;;5015095;28;20576;-66
2022/06/24 05:57:35;;;;;;;2.93;1.80;;;21.60;99.90;;;;;;5015111;28;20419;-66
2022/06/24 06:00:01;;;;;;;3.30;3.10;;;21.60;99.90;;;;;;5014744;28;20174;-65
2022/06/24 06:02:26;;;;;;;4.60;1.80;;;21.70;99.90;;;;;;5014237;28;20237;-66
2022/06/24 06:04:52;;;;;;;2.67;1.90;;;21.80;99.90;;;;;;5014350;28;20218;-66
2022/06/24 06:07:17;;;;;;;1.97;1.87;;;21.90;99.90;;;;;;5014924;28;20550;-65
2022/06/24 06:09:43;;;;;;;1.40;1.30;;;21.90;99.90;;;;;;4996999;28;20179;-66
2022/06/24 06:12:09;;;;;;;4.30;1.70;;;22.00;99.90;;;;;;5014355;28;20175;-66
2022/06/24 06:14:34;;;;;;;2.67;1.50;;;22.20;99.90;;;;;;5013942;28;20283;-67
2022/06/24 06:17:00;;;;;;;3.50;1.57;;;22.30;99.90;;;;;;5014702;28;20599;-67
2022/06/24 06:19:26;;;;;;;2.67;2.20;;;22.40;99.90;;;;;;5014327;28;20183;-66
2022/06/24 06:21:51;;;;;;;3.10;1.70;;;22.60;99.90;;;;;;5014446;28;20758;-64
2022/06/24 06:24:17;;;;;;;2.87;1.80;;;22.80;99.90;;;;;;5013972;28;20198;-64
2022/06/24 06:26:43;;;;;;;1.87;1.77;;;22.90;99.90;;;;;;5014369;28;20172;-65
2022/06/24 06:29:08;;;;;;;3.53;1.30;;;22.90;99.90;;;;;;5014214;28;20167;-64
2022/06/24 06:31:34;;;;;;;2.93;2.03;;;23.10;99.90;;;;;;5014411;28;20177;-64
2022/06/24 06:34:00;;;;;;;4.57;2.30;;;23.10;99.90;;;;;;5013301;28;20205;-64
2022/06/24 06:36:25;;;;;;;3.80;2.90;;;23.20;99.90;;;;;;5014075;28;20180;-65
2022/06/24 06:38:51;;;;;;;2.90;2.70;;;23.30;99.90;;;;;;5014085;28;20510;-64
2022/06/24 06:41:17;;;;;;;2.80;1.87;;;23.30;99.90;;;;;;4996531;28;20175;-66
2022/06/24 06:43:43;;;;;;;1.60;1.50;;;23.40;99.90;;;;;;5013705;28;20190;-66
2022/06/24 06:46:12;;;;;;;4.17;2.20;;;23.40;99.90;;;;;;5013963;28;20417;-66
2022/06/24 06:48:38;;;;;;;3.97;2.03;;;23.40;99.90;;;;;;5013635;28;20210;-65
2022/06/24 06:51:04;;;;;;;1.90;1.80;;;23.40;99.90;;;;;;5014003;28;20460;-66
2022/06/24 06:53:30;;;;;;;2.57;2.10;;;23.40;99.90;;;;;;5013428;28;20433;-65
2022/06/24 06:55:56;;;;;;;5.73;1.83;;;23.60;99.90;;;;;;5014026;28;20180;-67
2022/06/24 06:58:22;;;;;;;1.73;1.60;;;23.90;99.90;;;;;;5013441;28;20660;-66
2022/06/24 07:00:48;;;;;;;3.17;1.73;;;24.00;99.90;;;;;;5013266;28;20422;-71
2022/06/24 07:03:14;;;;;;;2.20;2.00;;;24.00;99.90;;;;;;5013323;28;20792;-68
2022/06/24 07:05:42;;;;;;;4.27;3.03;;;24.00;99.90;;;;;;5013577;28;20457;-69
2022/06/24 07:08:10;;;;;;;4.03;3.60;;;24.00;99.90;;;;;;5013520;28;20203;-68
2022/06/24 07:10:36;;;;;;;3.13;2.20;;;24.10;99.90;;;;;;4995997;28;20509;-69
2022/06/24 07:13:02;;;;;;;2.10;2.00;;;24.10;99.90;;;;;;4979307;28;20485;-67
2022/06/24 07:15:27;;;;;;;2.77;1.63;;;24.20;99.90;;;;;;5013258;28;20469;-67
2022/06/24 07:17:53;;;;;;;1.80;1.70;;;24.30;99.90;;;;;;5013714;28;20212;-70
2022/06/24 07:20:19;;;;;;;3.23;1.80;;;24.40;99.90;;;;;;4996122;28;20182;-69
2022/06/24 07:22:44;;;;;;;2.07;1.90;;;24.50;99.90;;;;;;5013175;28;20190;-70
2022/06/24 07:25:10;;;;;;;2.80;2.53;;;24.90;99.90;;;;;;5013268;28;20190;-68
2022/06/24 07:27:36;;;;;;;1.90;1.80;;;25.20;99.90;;;;;;5013700;28;20748;-69
2022/06/24 07:30:04;;;;;;;1.90;1.80;;;25.60;99.90;;;;;;4995715;28;20510;-70
2022/06/24 07:32:30;;;;;;;1.87;1.67;;;26.00;99.90;;;;;;5013164;28;20380;-70
2022/06/24 07:34:56;;;;;;;2.73;2.17;;;26.60;99.90;;;;;;5013128;28;20444;-70
2022/06/24 07:37:21;;;;;;;1.97;1.77;;;27.50;99.90;;;;;;5015113;28;20396;-71
2022/06/24 07:39:47;;;;;;;3.53;2.00;;;28.50;99.70;;;;;;5017676;28;20262;-71
2022/06/24 07:42:12;;;;;;;1.80;1.70;;;29.50;97.40;;;;;;5017476;28;20261;-84
2022/06/24 07:44:42;;;;;;;1.97;1.87;;;30.60;95.60;;;;;;5016741;28;20226;-74
2022/06/24 07:47:11;;;;;;;2.27;1.60;;;31.60;93.20;;;;;;5017463;28;20194;-71
2022/06/24 07:49:37;;;;;;;1.97;1.87;;;32.60;90.80;;;;;;5017430;28;20443;-72
2022/06/24 07:52:04;;;;;;;2.10;2.00;;;33.00;88.30;;;;;;5017295;28;20413;-67
2022/06/24 07:54:31;;;;;;;2.30;1.93;;;32.80;87.50;;;;;;5016445;28;20282;-71
2022/06/24 07:56:56;;;;;;;1.80;1.70;;;32.30;86.50;;;;;;4999429;28;20878;-73
2022/06/24 07:59:34;;;;;;;5.40;4.33;;;31.60;86.10;;;;;;5016675;28;20495;-74
2022/06/24 08:02:01;;;;;;;4.83;2.63;;;30.90;88.30;;;;;;5017087;28;20528;-69
2022/06/24 08:04:30;;;;;;;4.20;2.37;;;30.30;90.00;;;;;;5016393;28;20425;-68
2022/06/24 08:06:57;;;;;;;2.00;1.80;;;30.20;92.30;;;;;;5016602;28;20418;-69
2022/06/24 08:09:27;;;;;;;3.67;2.80;;;30.90;91.70;;;;;;5016888;28;20406;-68
2022/06/24 08:11:54;;;;;;;1.90;1.80;;;32.10;89.90;;;;;;5017179;28;20815;-66
2022/06/24 08:14:20;;;;;;;2.20;2.10;;;33.40;86.00;;;;;;4998288;28;20447;-68
2022/06/24 08:16:45;;;;;;;3.10;1.70;;;34.30;81.20;;;;;;5016985;28;20395;-68
2022/06/24 08:19:12;;;;;;;2.60;2.23;;;34.80;77.90;;;;;;5017035;28;20438;-67
2022/06/24 08:21:37;;;;;;;2.30;1.90;;;35.10;77.50;;;;;;5017474;28;20194;-69
2022/06/24 08:24:04;;;;;;;2.50;2.40;;;35.30;77.10;;;;;;4998687;28;20441;-68
2022/06/24 08:26:30;;;;;;;7.00;6.30;;;35.90;73.60;;;;;;5016643;28;20584;-69
2022/06/24 08:28:56;;;;;;;3.93;2.70;;;36.40;72.40;;;;;;5016231;28;20457;-72
2022/06/24 08:31:22;;;;;;;2.23;2.13;;;36.80;68.80;;;;;;5016792;28;20532;-71
2022/06/24 08:33:48;;;;;;;1.80;1.70;;;37.00;68.10;;;;;;5016062;28;20465;-69
2022/06/24 08:36:14;;;;;;;2.53;1.80;;;37.30;67.00;;;;;;5016377;28;20800;-70
2022/06/24 08:38:40;;;;;;;1.90;1.70;;;37.60;67.90;;;;;;5016911;28;20406;-70
2022/06/24 08:41:06;;;;;;;2.47;2.27;;;37.80;64.50;;;;;;5016472;28;20420;-72
2022/06/24 08:43:35;;;;;;;1.83;1.73;;;37.30;65.40;;;;;;5015640;28;20714;-67
2022/06/24 08:46:02;;;;;;;1.87;1.60;;;37.30;66.40;;;;;;5016317;28;20179;-71
2022/06/24 08:48:31;;;;;;;2.00;1.90;;;37.40;64.10;;;;;;5015959;28;20457;-74
2022/06/24 08:50:57;;;;;;;1.67;1.57;;;37.40;62.30;;;;;;5016097;28;20413;-72
2022/06/24 08:53:26;;;;;;;1.80;1.70;;;37.10;58.40;;;;;;5015778;28;20434;-74
2022/06/24 08:55:51;;;;;;;2.00;1.80;;;36.40;59.60;;;;;;5016174;28;20413;-74
2022/06/24 08:58:18;;;;;;;2.00;1.60;;;35.60;62.50;;;;;;5015545;28;20979;-72
2022/06/24 09:00:44;;;;;;;1.40;1.40;;;34.90;64.00;;;;;;5016249;28;20259;-72
2022/06/24 09:03:11;;;;;;;2.20;1.70;;;34.30;68.60;;;;;;5015463;28;20465;-72
2022/06/24 09:05:37;;;;;;;1.80;1.70;;;33.50;69.30;;;;;;5015778;28;20437;-70
2022/06/24 09:08:06;;;;;;;1.87;1.77;;;33.00;71.60;;;;;;5015907;28;20464;-74
2022/06/24 09:10:32;;;;;;;2.00;1.87;;;32.40;71.50;;;;;;5015914;28;20249;-74
2022/06/24 09:12:58;;;;;;;1.67;1.57;;;32.10;70.10;;;;;;4997118;28;20852;-69
2022/06/24 09:15:25;;;;;;;2.00;1.87;;;31.80;72.80;;;;;;5015712;28;20384;-70
2022/06/24 09:17:51;;;;;;;2.70;1.60;;;31.50;74.40;;;;;;5015575;28;20916;-71
2022/06/24 09:20:19;;;;;;;1.90;1.80;;;31.30;74.70;;;;;;5015901;28;20387;-75
2022/06/24 09:22:45;;;;;;;2.30;1.63;;;31.10;74.70;;;;;;5016136;28;20599;-74
2022/06/24 09:25:11;;;;;;;1.97;1.77;;;31.00;75.40;;;;;;5015536;28;20487;-75
2022/06/24 09:27:45;;;;;;;2.10;1.90;;;30.90;75.90;;;;;;5015306;28;20210;-75
2022/06/24 09:30:15;;;;;;;3.57;1.90;;;31.00;75.40;;;;;;5015780;28;20415;-73
2022/06/24 09:32:55;;;;;;;2.10;2.00;;;30.80;80.30;;;;;;5015193;28;20457;-71
2022/06/24 09:35:22;;;;;;;3.30;1.97;;;30.70;82.00;;;;;;5015250;28;20782;-72
2022/06/24 09:37:50;;;;;;;2.27;2.10;;;30.30;82.20;;;;;;5015383;28;20400;-71
2022/06/24 09:40:23;;;;;;;2.27;2.17;;;29.70;83.60;;;;;;5015474;28;20479;-71
2022/06/24 09:43:09;;;;;;;2.43;2.23;;;29.80;87.70;;;;;;5014558;28;20467;-70
2022/06/24 09:45:52;;;;;;;2.30;2.10;;;30.80;85.30;;;;;;4998354;28;20418;-72
2022/06/24 09:48:29;;;;;;;2.10;2.00;;;32.00;82.50;;;;;;5015148;28;20449;-70
2022/06/24 09:51:06;;;;;;;2.23;2.13;;;32.50;76.70;;;;;;4997215;28;20483;-71
2022/06/24 09:53:35;;;;;;;2.33;2.03;;;32.40;76.70;;;;;;5014988;28;20436;-72
2022/06/24 09:56:02;;;;;;;2.27;2.17;;;32.40;75.50;;;;;;5014956;28;20437;-70
2022/06/24 09:58:28;;;;;;;2.27;2.17;;;32.30;75.80;;;;;;5014951;28;20385;-72
2022/06/24 10:00:54;;;;;;;2.13;2.03;;;32.00;78.10;;;;;;5014500;28;20437;-71
2022/06/24 10:03:20;;;;;;;4.70;2.30;;;32.40;76.20;;;;;;5014476;28;20430;-72
2022/06/24 10:05:49;;;;;;;2.00;1.90;;;33.00;73.80;;;;;;4997137;28;20201;-71
2022/06/24 10:08:23;;;;;;;2.67;2.47;;;33.30;75.70;;;;;;5014711;28;20432;-71
2022/06/24 10:10:56;;;;;;;2.73;2.53;;;33.90;73.80;;;;;;5014388;28;20471;-72
2022/06/24 10:13:33;;;;;;;2.37;2.27;;;34.20;71.50;;;;;;5014247;28;20404;-76
2022/06/24 10:16:01;;;;;;;2.40;2.30;;;33.80;71.60;;;;;;5014536;28;20410;-71
2022/06/24 10:18:37;;;;;;;2.90;2.20;;;33.50;74.10;;;;;;5014619;28;20407;-68
2022/06/24 10:21:05;;;;;;;2.03;1.93;;;33.30;74.10;;;;;;5014358;28;20405;-73
2022/06/24 10:23:43;;;;;;;1.70;1.70;;;33.60;75.80;;;;;;4996777;28;20451;-71
2022/06/24 10:26:33;;;;;;;2.30;2.20;;;34.50;72.40;;;;;;5014567;28;20842;-69
2022/06/24 10:29:04;;;;;;;2.70;2.50;;;35.40;66.90;;;;;;4993196;28;20463;-66
2022/06/24 10:31:42;;;;;;;2.70;2.10;;;35.30;67.80;;;;;;4994738;28;20411;-66
2022/06/24 10:34:23;;;;;;;2.37;2.17;;;34.40;68.60;;;;;;4994342;28;20433;-66
2022/06/24 10:36:53;;;;;;;2.20;2.10;;;33.60;71.60;;;;;;4994743;28;20392;-65
2022/06/24 10:39:27;;;;;;;2.87;2.67;;;32.80;72.30;;;;;;4995053;28;20382;-70
2022/06/24 10:42:02;;;;;;;2.30;2.10;;;32.00;74.10;;;;;;4999959;28;20788;-69
2022/06/24 10:44:38;;;;;;;3.50;2.50;;;30.90;76.60;;;;;;5013703;28;20407;-68
2022/06/24 10:47:10;;;;;;;2.80;2.37;;;30.00;80.20;;;;;;5014018;28;20505;-69
2022/06/24 10:50:04;;;;;;;3.40;2.60;;;29.50;82.00;;;;;;4996469;28;20384;-68
2022/06/24 10:52:48;;;;;;;2.60;2.40;;;29.00;84.00;;;;;;5012577;28;20402;-68
2022/06/24 10:57:56;;;;;;;2.87;2.60;;;28.80;86.10;;;;;;5013525;28;20425;-68
2022/06/24 11:00:24;;;;;;;2.30;2.10;;;28.70;85.60;;;;;;5013685;28;20420;-69
2022/06/24 11:03:11;;;;;;;2.90;2.70;;;28.50;86.80;;;;;;5013277;28;20410;-70
2022/06/24 11:05:44;;;;;;;2.40;2.30;;;28.40;87.00;;;;;;5012757;28;20438;-69
2022/06/24 11:08:15;;;;;;;3.67;3.10;;;28.00;89.10;;;;;;5013754;28;20436;-68
2022/06/24 11:10:42;;;;;;;2.37;2.27;;;27.70;90.60;;;;;;5013598;28;20435;-69
2022/06/24 11:13:09;;;;;;;3.00;2.47;;;27.60;90.70;;;;;;5011797;28;20943;-68
2022/06/24 11:15:37;;;;;;;2.87;2.67;;;27.40;91.00;;;;;;5013410;28;20415;-68
2022/06/24 11:18:10;;;;;;;3.07;2.77;;;27.30;91.30;;;;;;4995965;28;21035;-68
2022/06/24 11:20:42;;;;;;;3.80;2.63;;;27.40;91.40;;;;;;5013721;28;20413;-68
2022/06/24 11:23:10;;;;;;;3.27;2.97;;;27.60;91.50;;;;;;5013106;28;20385;-69
2022/06/24 11:25:37;;;;;;;2.83;2.70;;;27.70;91.60;;;;;;5013091;28;20384;-70
2022/06/24 11:28:03;;;;;;;2.80;2.40;;;27.80;90.90;;;;;;5013172;28;20461;-68
2022/06/24 11:30:29;;;;;;;3.50;3.30;;;27.70;90.70;;;;;;5013711;28;20731;-69
2022/06/24 11:32:56;;;;;;;2.60;2.40;;;27.60;90.20;;;;;;5015740;28;20388;-70
2022/06/24 11:35:23;;;;;;;3.77;2.97;;;27.60;90.10;;;;;;5008588;28;20245;-68
2022/06/24 11:37:49;;;;;;;3.73;3.20;;;27.50;90.10;;;;;;4993665;28;20739;-70
2022/06/24 11:40:22;;;;;;;2.30;2.20;;;27.30;90.70;;;;;;4993638;28;20407;-71
2022/06/24 11:42:48;;;;;;;2.13;1.93;;;27.20;90.60;;;;;;4975827;28;20653;-67
2022/06/24 11:45:14;;;;;;;3.70;3.40;;;27.10;91.00;;;;;;4993672;28;20488;-69
2022/06/24 11:47:40;;;;;;;3.30;3.00;;;26.90;91.10;;;;;;4993560;28;20573;-70
2022/06/24 11:50:16;;;;;;;3.77;3.43;;;26.80;93.00;;;;;;5002612;28;20181;-71
2022/06/24 11:52:48;;;;;;;3.30;3.10;;;26.70;93.80;;;;;;5012911;28;20171;-71
2022/06/24 11:55:24;;;;;;;2.60;2.50;;;26.30;94.50;;;;;;5013110;28;20412;-71
2022/06/24 11:57:57;;;;;;;3.30;3.03;;;26.00;95.50;;;;;;4995894;28;20401;-70
2022/06/24 12:00:25;;;;;;;3.30;2.90;;;25.80;95.50;;;;;;5013127;28;20471;-70
2022/06/24 12:02:53;;;;;;;3.40;3.20;;;25.50;95.70;;;;;;5012655;28;20372;-71
2022/06/24 12:05:21;;;;;;;3.40;3.03;;;25.20;96.80;;;;;;5012594;28;20438;-70
2022/06/24 12:07:48;;;;;;;6.20;4.87;;;24.90;97.50;;;;;;5013041;28;20816;-70
2022/06/24 12:10:14;;;;;;;5.53;5.03;;;24.60;98.80;;;;;;4995489;28;20413;-71
2022/06/24 12:13:00;;;;;;;7.57;5.40;;;24.20;99.80;;;;;;5012544;28;20484;-72
2022/06/24 12:15:31;;;;;;;17.23;12.23;;;23.80;99.90;;;;;;5013027;28;20409;-69
2022/06/24 12:17:58;;;;;;;4.00;3.63;;;23.50;99.90;;;;;;5012884;28;20422;-68
2022/06/24 12:20:26;;;;;;;3.67;3.37;;;23.10;99.90;;;;;;5012580;28;20451;-69
2022/06/24 12:23:16;;;;;;;2.63;2.30;;;22.70;99.90;;;;;;5013120;28;20987;-68
2022/06/24 12:25:43;;;;;;;3.50;2.80;;;21.90;99.90;;;;;;5004632;28;20442;-68
2022/06/24 12:28:20;;;;;;;4.33;2.90;;;21.30;99.90;;;;;;5016474;28;20481;-68
2022/06/24 12:31:04;;;;;;;3.40;3.07;;;20.70;99.90;;;;;;5016371;28;20405;-67
2022/06/24 12:33:38;;;;;;;3.10;2.90;;;20.30;99.90;;;;;;5015861;28;20437;-66
2022/06/24 12:36:12;;;;;;;4.30;2.77;;;20.00;99.90;;;;;;5016751;28;20497;-70
2022/06/24 12:38:57;;;;;;;5.13;3.20;;;19.70;99.90;;;;;;4998702;28;20771;-71
2022/06/24 12:41:23;;;;;;;3.33;2.70;;;19.50;99.90;;;;;;5016377;28;20410;-69
2022/06/24 12:43:52;;;;;;;2.77;2.60;;;19.40;99.90;;;;;;5015670;28;20492;-70
2022/06/24 12:46:22;;;;;;;3.37;3.17;;;19.40;99.90;;;;;;5016167;28;20402;-73
2022/06/24 12:51:42;;;;;;;3.73;3.10;;;19.50;99.90;;;;;;5016364;28;20409;-68
2022/06/24 12:54:09;;;;;;;2.60;2.40;;;19.50;99.90;;;;;;5015746;28;20430;-69
2022/06/24 12:56:35;;;;;;;5.57;3.50;;;19.50;99.90;;;;;;5015797;28;20832;-70
2022/06/24 12:59:00;;;;;;;10.57;5.80;;;19.40;99.90;;;;;;5015943;28;20481;-70
2022/06/24 13:01:26;;;;;;;4.33;3.93;;;19.30;99.90;;;;;;5016264;28;20485;-71
2022/06/24 13:03:52;;;;;;;5.63;5.10;;;19.30;99.90;;;;;;5015187;28;20456;-71
2022/06/24 13:06:19;;;;;;;6.60;5.07;;;19.30;99.90;;;;;;5015582;28;20564;-71
2022/06/24 13:08:45;;;;;;;4.00;3.40;;;19.30;99.90;;;;;;5012528;28;20457;-71
2022/06/24 13:11:12;;;;;;;7.00;4.40;;;19.40;99.90;;;;;;4996921;28;20452;-72
2022/06/24 13:13:38;;;;;;;4.30;3.00;;;19.40;99.90;;;;;;4996999;28;20507;-71
2022/06/24 13:16:04;;;;;;;5.10;2.97;;;19.60;99.90;;;;;;4995875;28;20833;-72
2022/06/24 13:18:30;;;;;;;3.77;2.83;;;19.50;99.90;;;;;;5005454;28;20178;-69
2022/06/24 13:20:55;;;;;;;2.90;2.60;;;19.50;99.90;;;;;;5015317;28;20428;-69
2022/06/24 13:23:21;;;;;;;4.20;2.73;;;19.50;99.90;;;;;;5015157;28;20249;-69
2022/06/24 13:25:46;;;;;;;4.70;3.90;;;19.40;99.90;;;;;;5015276;28;20182;-71
2022/06/24 13:28:12;;;;;;;3.93;3.60;;;19.40;99.90;;;;;;5015047;28;20202;-71
2022/06/24 13:30:38;;;;;;;2.83;2.63;;;19.40;99.90;;;;;;5015227;28;20241;-69
2022/06/24 13:33:03;;;;;;;5.97;3.90;;;19.50;99.90;;;;;;5014522;28;20186;-70
2022/06/24 13:35:29;;;;;;;5.80;4.00;;;19.50;99.90;;;;;;5014377;28;20182;-68
2022/06/24 13:37:55;;;;;;;2.70;2.50;;;19.50;99.90;;;;;;5013497;28;20588;-69
2022/06/24 13:40:21;;;;;;;3.90;3.40;;;19.50;99.90;;;;;;5011639;28;20544;-69
2022/06/24 13:42:46;;;;;;;4.70;3.03;;;19.50;99.90;;;;;;5014096;28;20290;-69
2022/06/24 13:45:12;;;;;;;8.13;3.23;;;19.50;99.90;;;;;;5014366;28;20460;-69
2022/06/24 13:47:38;;;;;;;12.13;7.43;;;19.50;99.90;;;;;;5014588;28;20237;-69
2022/06/24 13:50:05;;;;;;;9.70;5.67;;;19.50;99.90;;;;;;5014628;28;20168;-69
2022/06/24 13:52:30;;;;;;;6.00;4.80;;;19.50;99.90;;;;;;5014481;28;20541;-72
2022/06/24 13:54:57;;;;;;;2.47;2.37;;;19.50;99.90;;;;;;5014752;28;20441;-71
2022/06/24 13:57:24;;;;;;;8.10;2.30;;;19.50;99.90;;;;;;5014991;28;20619;-70
2022/06/24 13:59:50;;;;;;;3.90;2.80;;;19.40;99.90;;;;;;5014991;28;20445;-71
2022/06/24 14:02:20;;;;;;;2.43;2.27;;;19.30;99.90;;;;;;5013821;28;20426;-70
2022/06/24 14:04:46;;;;;;;3.10;2.20;;;19.30;99.90;;;;;;5014712;28;20910;-71
2022/06/24 14:07:12;;;;;;;2.50;2.30;;;19.20;99.90;;;;;;4997173;28;20445;-71
2022/06/24 14:09:39;;;;;;;2.70;2.37;;;19.10;99.90;;;;;;5014567;28;20421;-68
2022/06/24 14:12:06;;;;;;;4.23;2.97;;;19.00;99.90;;;;;;5014345;28;20519;-68
2022/06/24 14:14:32;;;;;;;2.40;2.20;;;18.80;99.90;;;;;;5014193;28;20421;-69
2022/06/24 14:16:57;;;;;;;4.90;2.40;;;18.70;99.90;;;;;;5014498;28;20429;-69
2022/06/24 14:19:23;;;;;;;2.33;2.13;;;18.60;99.90;;;;;;5014536;28;20184;-69
2022/06/24 14:21:48;;;;;;;5.17;2.40;;;18.50;99.90;;;;;;5013826;28;20209;-69
2022/06/24 14:24:32;;;;;;;2.20;2.10;;;18.40;99.90;;;;;;5004173;28;20214;-69
2022/06/24 14:27:09;;;;;;;3.03;2.70;;;18.30;99.90;;;;;;5014441;28;20187;-69
2022/06/24 14:29:38;;;;;;;3.30;3.00;;;18.30;99.90;;;;;;5014217;28;20423;-70
2022/06/24 14:32:04;;;;;;;2.43;2.10;;;18.30;99.90;;;;;;5014087;28;20416;-70
2022/06/24 14:34:33;;;;;;;3.33;3.10;;;18.30;99.90;;;;;;5013095;28;20442;-69
2022/06/24 14:37:00;;;;;;;2.50;2.30;;;18.20;99.90;;;;;;5013759;28;20463;-69
2022/06/24 14:42:10;;;;;;;2.47;2.27;;;18.20;99.90;;;;;;5014062;28;20410;-69
2022/06/24 14:44:35;;;;;;;3.27;2.97;;;18.20;99.90;;;;;;5012975;28;20811;-68
2022/06/24 14:47:03;;;;;;;3.07;2.80;;;18.20;99.90;;;;;;5013376;28;20679;-70
2022/06/24 14:49:29;;;;;;;3.20;2.90;;;18.20;99.90;;;;;;5013999;28;20225;-69
2022/06/24 14:51:55;;;;;;;2.73;2.53;;;18.20;99.90;;;;;;5014204;28;20413;-68
2022/06/24 14:54:20;;;;;;;5.63;3.37;;;18.20;99.90;;;;;;5013099;28;20436;-69
2022/06/24 14:56:46;;;;;;;3.30;3.00;;;18.20;99.90;;;;;;4996291;28;20185;-70
2022/06/24 14:59:12;;;;;;;4.00;3.40;;;18.30;99.90;;;;;;5013984;28;20203;-72
2022/06/24 15:01:38;;;;;;;7.60;4.50;;;18.20;99.90;;;;;;5013266;28;20243;-72
2022/06/24 15:04:03;;;;;;;3.00;2.80;;;18.30;99.90;;;;;;5012955;28;20587;-71
2022/06/24 15:06:30;;;;;;;4.67;4.27;;;18.20;99.90;;;;;;5013566;28;20565;-72
2022/06/24 15:08:56;;;;;;;3.13;2.87;;;18.10;99.90;;;;;;5013722;28;20205;-71
2022/06/24 15:11:22;;;;;;;6.00;3.13;;;18.00;99.90;;;;;;5013817;28;20423;-69
2022/06/24 15:13:48;;;;;;;5.53;2.70;;;18.00;99.90;;;;;;5013355;28;20430;-70
2022/06/24 15:16:13;;;;;;;2.27;2.07;;;17.90;99.90;;;;;;5013069;28;20203;-69
2022/06/24 15:18:39;;;;;;;2.17;2.07;;;17.90;99.90;;;;;;5014374;28;20207;-70
2022/06/24 15:21:05;;;;;;;1.90;1.80;;;17.90;99.90;;;;;;5013739;28;20639;-70
2022/06/24 15:23:31;;;;;;;2.37;2.17;;;17.90;99.90;;;;;;5013308;28;20430;-70
2022/06/24 15:25:56;;;;;;;2.37;2.20;;;17.90;99.90;;;;;;5013311;28;20260;-69
2022/06/24 15:28:24;;;;;;;2.50;2.30;;;17.90;99.90;;;;;;5013157;28;20217;-70
2022/06/24 15:30:50;;;;;;;2.07;1.90;;;17.90;99.90;;;;;;5012451;28;20180;-72
2022/06/24 15:33:16;;;;;;;2.70;2.50;;;17.90;99.90;;;;;;5013108;28;20475;-69
2022/06/24 15:35:42;;;;;;;4.70;4.30;;;17.90;99.90;;;;;;5013499;28;20410;-68
2022/06/24 15:38:07;;;;;;;4.27;2.70;;;17.90;99.90;;;;;;5013155;28;20506;-69
2022/06/24 15:40:33;;;;;;;2.23;1.90;;;17.90;99.90;;;;;;5012833;28;20183;-69
2022/06/24 15:42:59;;;;;;;1.90;1.80;;;17.90;99.90;;;;;;5013055;28;20187;-69
2022/06/24 15:45:25;;;;;;;2.73;2.30;;;17.90;99.90;;;;;;5012906;28;20535;-68
2022/06/24 15:47:54;;;;;;;2.43;2.23;;;17.90;99.90;;;;;;5013312;28;20475;-69
2022/06/24 15:50:20;;;;;;;1.90;1.80;;;17.90;99.90;;;;;;5012699;28;20261;-67
2022/06/24 15:52:46;;;;;;;2.33;2.17;;;17.90;99.90;;;;;;5012525;28;20445;-67
2022/06/24 15:55:12;;;;;;;2.67;2.47;;;18.00;99.90;;;;;;5013009;28;20425;-68
2022/06/24 15:57:37;;;;;;;2.40;2.20;;;18.00;99.90;;;;;;5013436;28;20239;-67
2022/06/24 16:00:04;;;;;;;2.33;2.13;;;18.00;99.90;;;;;;5016713;28;20489;-67
2022/06/24 16:02:30;;;;;;;4.17;2.73;;;18.00;99.90;;;;;;5016920;28;20466;-69
2022/06/24 16:04:55;;;;;;;2.63;2.43;;;18.00;99.90;;;;;;4999070;28;20961;-71
2022/06/24 16:07:21;;;;;;;3.67;2.03;;;18.00;99.90;;;;;;5017014;28;20218;-73
2022/06/24 16:09:46;;;;;;;2.17;2.00;;;18.10;99.90;;;;;;5016742;28;20232;-75
2022/06/24 16:12:28;;;;;;;3.37;2.20;;;18.10;99.90;;;;;;5016995;28;20168;-76
2022/06/24 16:14:55;;;;;;;2.10;2.00;;;18.20;99.90;;;;;;5016659;28;20205;-76
2022/06/24 16:17:22;;;;;;;2.30;2.20;;;18.20;99.90;;;;;;5016832;28;20412;-76
2022/06/24 16:19:50;;;;;;;3.03;2.00;;;18.20;99.90;;;;;;4998688;28;20433;-75
2022/06/24 16:22:15;;;;;;;2.33;2.20;;;18.20;99.90;;;;;;5016140;28;20607;-77
2022/06/24 16:30:10;;;;;;;2.47;2.27;;;18.10;99.90;;;;;;5016289;28;20801;-73
2022/06/24 16:32:36;;;;;;;2.50;1.80;;;18.00;99.90;;;;;;5015402;28;20473;-68
2022/06/24 16:35:02;;;;;;;1.63;1.53;;;18.00;99.90;;;;;;4985212;28;20475;-69
2022/06/24 16:37:29;;;;;;;1.60;1.50;;;18.00;99.90;;;;;;5004133;28;20439;-72
2022/06/24 16:39:54;;;;;;;2.43;2.23;;;18.00;99.90;;;;;;5007791;28;20449;-70
2022/06/24 16:42:20;;;;;;;1.90;1.80;;;18.00;99.90;;;;;;5005451;28;20446;-69
2022/06/24 16:44:46;;;;;;;1.93;1.83;;;18.00;99.90;;;;;;5004006;28;20202;-68
2022/06/24 16:47:11;;;;;;;1.90;1.60;;;18.10;99.90;;;;;;5006407;28;21267;-70
2022/06/24 16:49:37;;;;;;;1.80;1.70;;;18.10;99.90;;;;;;4992536;28;20542;-70
2022/06/24 16:52:03;;;;;;;2.60;2.40;;;18.10;99.90;;;;;;5005263;28;20178;-72
2022/06/24 16:54:29;;;;;;;6.00;3.50;;;18.10;99.90;;;;;;5003538;28;20238;-72
2022/06/24 16:56:54;;;;;;;5.20;3.80;;;18.10;99.90;;;;;;5000439;28;20421;-75
2022/06/24 16:59:20;;;;;;;2.40;2.20;;;18.20;99.90;;;;;;5015896;28;20179;-67
2022/06/24 17:01:46;;;;;;;2.00;1.90;;;18.20;99.90;;;;;;5016244;28;20274;-67
2022/06/24 17:04:12;;;;;;;2.03;1.83;;;18.20;99.90;;;;;;5015583;28;20447;-68
2022/06/24 17:06:37;;;;;;;2.80;2.40;;;18.20;99.90;;;;;;5015456;28;20602;-68
2022/06/24 17:09:03;;;;;;;1.80;1.70;;;18.20;99.90;;;;;;5015063;28;20289;-68
2022/06/24 17:11:29;;;;;;;2.43;2.23;;;18.20;99.90;;;;;;5015137;28;20500;-68